QTR806 OTHH-RJAA
Flight info
| Callsign | QTR806 |
|---|---|
| Flight time | N/A |
| Altitude | 35000 |
| Route | BUNDU B415 KUGTO Q415 TONVO/N0496F370 A777 VAXIM L301 RASKI L639 BPL/N0492F390 A791 CEA B465 CTG A599 LINSO/K0909S1190 A599 SGM A581 AGTIS/K0900S1250 A581 WHA R343 PK W116 JTN G327 BOLEX/N0485F410 DCT IKEDO Y590 BEDAR Y591 FUE Y23 KASTE Y81 RUTAS |
| Aircraft | A359/H-SDE2E3GHIJ3J4J5LM1ORWXY/LB1D1 |
Departure
| Time | 2026-05-07 05:10 |
|---|---|
| Airport | Hamad International Airport (OTHH) |
Arrival
| Time | N/A |
|---|---|
| Airport | Narita International Airport (RJAA) |
| Time | Latitude | Longitude | Altitude | Speed | Heading |
|---|---|---|---|---|---|
| 2026-05-07 04:48 | 25.26400 | 51.61136 | 28 ft | 0 kts | 72° |
| 2026-05-07 04:59 | 25.26394 | 51.61117 | 27 ft | 4 kts | 72° |
| 2026-05-07 04:59 | 25.26385 | 51.61089 | 27 ft | 4 kts | 72° |
| 2026-05-07 04:59 | 25.26378 | 51.61065 | 25 ft | 4 kts | 61° |
| 2026-05-07 05:00 | 25.26365 | 51.61044 | 26 ft | 4 kts | 31° |
| 2026-05-07 05:00 | 25.26347 | 51.61037 | 26 ft | 4 kts | 349° |
| 2026-05-07 05:00 | 25.26323 | 51.61046 | 26 ft | 4 kts | 330° |
| 2026-05-07 05:00 | 25.26300 | 51.61061 | 26 ft | 4 kts | 334° |
| 2026-05-07 05:01 | 25.26291 | 51.61066 | 26 ft | 0 kts | 338° |
| 2026-05-07 05:03 | 25.26307 | 51.61059 | 27 ft | 6 kts | 338° |
| 2026-05-07 05:03 | 25.26374 | 51.61029 | 26 ft | 14 kts | 338° |
| 2026-05-07 05:04 | 25.26484 | 51.60980 | 28 ft | 20 kts | 338° |
| 2026-05-07 05:04 | 25.26597 | 51.60879 | 28 ft | 24 kts | 294° |
| 2026-05-07 05:04 | 25.26671 | 51.60693 | 28 ft | 28 kts | 293° |
| 2026-05-07 05:04 | 25.26660 | 51.60503 | 28 ft | 24 kts | 275° |
| 2026-05-07 05:05 | 25.26795 | 51.60409 | 28 ft | 26 kts | 338° |
| 2026-05-07 05:05 | 25.26972 | 51.60329 | 28 ft | 26 kts | 337° |
| 2026-05-07 05:05 | 25.27108 | 51.60345 | 28 ft | 22 kts | 64° |
| 2026-05-07 05:05 | 25.27172 | 51.60515 | 28 ft | 22 kts | 68° |
| 2026-05-07 05:06 | 25.27239 | 51.60696 | 28 ft | 28 kts | 68° |
| 2026-05-07 05:06 | 25.27314 | 51.60908 | 28 ft | 31 kts | 69° |
| 2026-05-07 05:06 | 25.27398 | 51.61141 | 28 ft | 33 kts | 68° |
| 2026-05-07 05:06 | 25.27484 | 51.61376 | 28 ft | 32 kts | 68° |
| 2026-05-07 05:07 | 25.27546 | 51.61569 | 28 ft | 16 kts | 93° |
| 2026-05-07 05:07 | 25.27503 | 51.61612 | 28 ft | 11 kts | 152° |
| 2026-05-07 05:07 | 25.27404 | 51.61658 | 28 ft | 20 kts | 158° |
| 2026-05-07 05:07 | 25.27266 | 51.61719 | 28 ft | 24 kts | 158° |
| 2026-05-07 05:08 | 25.27092 | 51.61795 | 28 ft | 31 kts | 158° |
| 2026-05-07 05:08 | 25.26880 | 51.61889 | 27 ft | 32 kts | 158° |
| 2026-05-07 05:08 | 25.26666 | 51.61983 | 28 ft | 34 kts | 158° |
| 2026-05-07 05:08 | 25.26442 | 51.62082 | 28 ft | 31 kts | 158° |
| 2026-05-07 05:09 | 25.26230 | 51.62175 | 29 ft | 33 kts | 158° |
| 2026-05-07 05:09 | 25.26027 | 51.62268 | 29 ft | 24 kts | 146° |
| 2026-05-07 05:09 | 25.26046 | 51.62423 | 29 ft | 24 kts | 35° |
| 2026-05-07 05:09 | 25.26224 | 51.62378 | 30 ft | 43 kts | 339° |
| 2026-05-07 05:10 | 25.26685 | 51.62176 | 26 ft | 99 kts | 338° |
| 2026-05-07 05:10 | 25.27483 | 51.61826 | 30 ft | 146 kts | 338° |
| 2026-05-07 05:10 | 25.28530 | 51.61348 | 208 ft | 174 kts | 338° |
| 2026-05-07 05:10 | 25.29622 | 51.60850 | 888 ft | 172 kts | 340° |
| 2026-05-07 05:11 | 25.30778 | 51.60351 | 1310 ft | 186 kts | 340° |
| 2026-05-07 05:11 | 25.32013 | 51.59815 | 1613 ft | 196 kts | 340° |
| 2026-05-07 05:11 | 25.33348 | 51.59258 | 1780 ft | 213 kts | 343° |
| 2026-05-07 05:11 | 25.34818 | 51.59392 | 2004 ft | 219 kts | 28° |
| 2026-05-07 05:12 | 25.35842 | 51.60595 | 2423 ft | 220 kts | 69° |
| 2026-05-07 05:12 | 25.35938 | 51.62259 | 2968 ft | 221 kts | 98° |
| 2026-05-07 05:12 | 25.35800 | 51.63377 | 3310 ft | 222 kts | 94° |
| 2026-05-07 05:12 | 25.35790 | 51.65080 | 3829 ft | 224 kts | 83° |
| 2026-05-07 05:13 | 25.36045 | 51.66786 | 4389 ft | 225 kts | 76° |
| 2026-05-07 05:13 | 25.36465 | 51.68463 | 4913 ft | 227 kts | 71° |
| 2026-05-07 05:13 | 25.36810 | 51.70175 | 5359 ft | 232 kts | 85° |
| 2026-05-07 05:13 | 25.36633 | 51.71992 | 5658 ft | 247 kts | 100° |
| 2026-05-07 05:14 | 25.36226 | 51.73901 | 5856 ft | 264 kts | 102° |
| 2026-05-07 05:14 | 25.35782 | 51.75925 | 6184 ft | 274 kts | 102° |
| 2026-05-07 05:14 | 25.35343 | 51.78002 | 6624 ft | 280 kts | 101° |
| 2026-05-07 05:14 | 25.34904 | 51.80114 | 7088 ft | 284 kts | 101° |
| 2026-05-07 05:15 | 25.34471 | 51.82228 | 7595 ft | 287 kts | 101° |
| 2026-05-07 05:15 | 25.34032 | 51.84395 | 8140 ft | 290 kts | 101° |
| 2026-05-07 05:15 | 25.33593 | 51.86591 | 8682 ft | 294 kts | 100° |
| 2026-05-07 05:15 | 25.33155 | 51.88814 | 9245 ft | 298 kts | 101° |
| 2026-05-07 05:16 | 25.32709 | 51.91061 | 9831 ft | 301 kts | 101° |
| 2026-05-07 05:16 | 25.32260 | 51.93339 | 10312 ft | 308 kts | 100° |
| 2026-05-07 05:16 | 25.31792 | 51.95710 | 10562 ft | 323 kts | 101° |
| 2026-05-07 05:16 | 25.31297 | 51.98190 | 10802 ft | 339 kts | 101° |
| 2026-05-07 05:17 | 25.30775 | 52.00793 | 11032 ft | 353 kts | 101° |
| 2026-05-07 05:17 | 25.30242 | 52.03452 | 11261 ft | 366 kts | 101° |
| 2026-05-07 05:17 | 25.29682 | 52.06242 | 11462 ft | 378 kts | 101° |
| 2026-05-07 05:17 | 25.28967 | 52.09076 | 11697 ft | 389 kts | 111° |
| 2026-05-07 05:18 | 25.27560 | 52.11655 | 12090 ft | 395 kts | 126° |
| 2026-05-07 05:18 | 25.25856 | 52.14045 | 12563 ft | 398 kts | 128° |
| 2026-05-07 05:18 | 25.24113 | 52.16435 | 13036 ft | 400 kts | 128° |
| 2026-05-07 05:18 | 25.22366 | 52.18842 | 13521 ft | 403 kts | 127° |
| 2026-05-07 05:19 | 25.20614 | 52.21268 | 13968 ft | 405 kts | 127° |
| 2026-05-07 05:19 | 25.18858 | 52.23708 | 14414 ft | 407 kts | 127° |
| 2026-05-07 05:19 | 25.17091 | 52.26166 | 14858 ft | 409 kts | 127° |
| 2026-05-07 05:19 | 25.15318 | 52.28632 | 15290 ft | 411 kts | 127° |
| 2026-05-07 05:20 | 25.13539 | 52.31107 | 15711 ft | 413 kts | 128° |
| 2026-05-07 05:20 | 25.11747 | 52.33602 | 16116 ft | 415 kts | 128° |
| 2026-05-07 05:20 | 25.09949 | 52.36107 | 16558 ft | 417 kts | 128° |
| 2026-05-07 05:20 | 25.08138 | 52.38622 | 16991 ft | 419 kts | 128° |
| 2026-05-07 05:21 | 25.06346 | 52.41111 | 17418 ft | 420 kts | 128° |
| 2026-05-07 05:21 | 25.02693 | 52.46181 | 18235 ft | 424 kts | 129° |
| 2026-05-07 05:21 | 25.00971 | 52.48831 | 18539 ft | 428 kts | 120° |
| 2026-05-07 05:22 | 24.99717 | 52.51821 | 18835 ft | 432 kts | 112° |
| 2026-05-07 05:22 | 24.98685 | 52.54950 | 19139 ft | 435 kts | 109° |
| 2026-05-07 05:22 | 24.97756 | 52.58143 | 19450 ft | 438 kts | 108° |
| 2026-05-07 05:22 | 24.96858 | 52.61365 | 19770 ft | 441 kts | 107° |
| 2026-05-07 05:23 | 24.95945 | 52.64605 | 20098 ft | 444 kts | 108° |
| 2026-05-07 05:23 | 24.95017 | 52.67856 | 20429 ft | 446 kts | 108° |
| 2026-05-07 05:23 | 24.94108 | 52.71138 | 20761 ft | 449 kts | 106° |
| 2026-05-07 05:23 | 24.93287 | 52.74472 | 21091 ft | 452 kts | 105° |
| 2026-05-07 05:24 | 24.92504 | 52.77849 | 21409 ft | 456 kts | 104° |
| 2026-05-07 05:24 | 24.91736 | 52.81193 | 21745 ft | 458 kts | 104° |
| 2026-05-07 05:24 | 24.90943 | 52.84608 | 22072 ft | 461 kts | 105° |
| 2026-05-07 05:24 | 24.90120 | 52.88082 | 22390 ft | 465 kts | 105° |
| 2026-05-07 05:25 | 24.89300 | 52.91490 | 22719 ft | 467 kts | 105° |
| 2026-05-07 05:25 | 24.88457 | 52.94955 | 23035 ft | 470 kts | 105° |
| 2026-05-07 05:25 | 24.87604 | 52.98442 | 23349 ft | 473 kts | 105° |
| 2026-05-07 05:25 | 24.86743 | 53.01951 | 23612 ft | 476 kts | 105° |
| 2026-05-07 05:26 | 24.85875 | 53.05483 | 23878 ft | 479 kts | 106° |
| 2026-05-07 05:26 | 24.85003 | 53.09032 | 24142 ft | 481 kts | 106° |
| 2026-05-07 05:26 | 24.84125 | 53.12600 | 24420 ft | 484 kts | 106° |
| 2026-05-07 05:26 | 24.83244 | 53.16184 | 24704 ft | 486 kts | 106° |
| 2026-05-07 05:27 | 24.82357 | 53.19787 | 24996 ft | 489 kts | 106° |
| 2026-05-07 05:27 | 24.81463 | 53.23413 | 25302 ft | 492 kts | 106° |
| 2026-05-07 05:27 | 24.80565 | 53.27051 | 25620 ft | 494 kts | 106° |
| 2026-05-07 05:27 | 24.79660 | 53.30716 | 25933 ft | 497 kts | 107° |
| 2026-05-07 05:28 | 24.78750 | 53.34398 | 26241 ft | 500 kts | 106° |
| 2026-05-07 05:28 | 24.77834 | 53.38109 | 26567 ft | 503 kts | 107° |
| 2026-05-07 05:28 | 24.76911 | 53.41831 | 26882 ft | 506 kts | 107° |
| 2026-05-07 05:28 | 24.75979 | 53.45576 | 27197 ft | 509 kts | 107° |
| 2026-05-07 05:29 | 24.75051 | 53.49298 | 27508 ft | 512 kts | 107° |
| 2026-05-07 05:29 | 24.74106 | 53.53086 | 27818 ft | 514 kts | 107° |
| 2026-05-07 05:29 | 24.73158 | 53.56888 | 28106 ft | 517 kts | 107° |
| 2026-05-07 05:29 | 24.72202 | 53.60714 | 28418 ft | 520 kts | 107° |
| 2026-05-07 05:30 | 24.71240 | 53.64565 | 28702 ft | 523 kts | 107° |
| 2026-05-07 05:30 | 24.70266 | 53.68459 | 28983 ft | 526 kts | 107° |
| 2026-05-07 05:30 | 24.69293 | 53.72343 | 29256 ft | 528 kts | 107° |
| 2026-05-07 05:30 | 24.68326 | 53.76201 | 29541 ft | 530 kts | 108° |
| 2026-05-07 05:31 | 24.67344 | 53.80110 | 29853 ft | 531 kts | 108° |
| 2026-05-07 05:31 | 24.66346 | 53.84034 | 30078 ft | 533 kts | 108° |
| 2026-05-07 05:31 | 24.65354 | 53.87962 | 30380 ft | 533 kts | 108° |
| 2026-05-07 05:31 | 24.64368 | 53.91889 | 30700 ft | 533 kts | 108° |
| 2026-05-07 05:32 | 24.63384 | 53.95824 | 31014 ft | 532 kts | 107° |
| 2026-05-07 05:32 | 24.62460 | 53.99771 | 31307 ft | 533 kts | 106° |
| 2026-05-07 05:32 | 24.61591 | 54.03729 | 31619 ft | 533 kts | 105° |
| 2026-05-07 05:32 | 24.60742 | 54.07689 | 31932 ft | 532 kts | 105° |
| 2026-05-07 05:33 | 24.59892 | 54.11648 | 32228 ft | 532 kts | 105° |
| 2026-05-07 05:33 | 24.59034 | 54.15600 | 32535 ft | 531 kts | 106° |
| 2026-05-07 05:33 | 24.58169 | 54.19542 | 32827 ft | 531 kts | 106° |
| 2026-05-07 05:33 | 24.57297 | 54.23477 | 33114 ft | 530 kts | 106° |
| 2026-05-07 05:34 | 24.56420 | 54.27409 | 33408 ft | 530 kts | 106° |
| 2026-05-07 05:34 | 24.55604 | 54.31300 | 33666 ft | 531 kts | 102° |
| 2026-05-07 05:34 | 24.55190 | 54.35386 | 33925 ft | 533 kts | 93° |
| 2026-05-07 05:34 | 24.55359 | 54.39403 | 34158 ft | 534 kts | 83° |
| 2026-05-07 05:35 | 24.56151 | 54.43396 | 34364 ft | 535 kts | 73° |
| 2026-05-07 05:35 | 24.57269 | 54.47289 | 34599 ft | 534 kts | 71° |
| 2026-05-07 05:35 | 24.58485 | 54.51150 | 34810 ft | 535 kts | 70° |
| 2026-05-07 05:36 | 24.61022 | 54.58892 | 34858 ft | 541 kts | 70° |
| 2026-05-07 05:36 | 24.63557 | 54.66676 | 34859 ft | 540 kts | 71° |
| 2026-05-07 05:37 | 24.66044 | 54.74471 | 34860 ft | 540 kts | 71° |
| 2026-05-07 05:37 | 24.68512 | 54.82276 | 34876 ft | 540 kts | 71° |
| 2026-05-07 05:38 | 24.70752 | 54.90145 | 34872 ft | 540 kts | 76° |
| 2026-05-07 05:38 | 24.72587 | 54.98170 | 34891 ft | 540 kts | 77° |
| 2026-05-07 05:39 | 24.74407 | 55.06139 | 34883 ft | 540 kts | 76° |
| 2026-05-07 05:39 | 24.76306 | 55.14133 | 34882 ft | 540 kts | 76° |
| 2026-05-07 05:40 | 24.78235 | 55.22125 | 34893 ft | 540 kts | 75° |
| 2026-05-07 05:40 | 24.80164 | 55.30122 | 34884 ft | 541 kts | 75° |
| 2026-05-07 05:41 | 24.82087 | 55.38125 | 34892 ft | 541 kts | 75° |
| 2026-05-07 05:41 | 24.84007 | 55.46141 | 34894 ft | 541 kts | 75° |
| 2026-05-07 05:42 | 24.85908 | 55.54104 | 34883 ft | 541 kts | 76° |
| 2026-05-07 05:42 | 24.87765 | 55.62129 | 34878 ft | 541 kts | 77° |
| 2026-05-07 05:43 | 24.89490 | 55.70197 | 34887 ft | 541 kts | 77° |
| 2026-05-07 05:43 | 24.91207 | 55.78276 | 34885 ft | 541 kts | 77° |
| 2026-05-07 05:44 | 24.92938 | 55.86333 | 34876 ft | 541 kts | 77° |
| 2026-05-07 05:44 | 24.94677 | 55.94395 | 34874 ft | 541 kts | 77° |
| 2026-05-07 05:45 | 24.96404 | 56.02414 | 34853 ft | 541 kts | 77° |
| 2026-05-07 05:45 | 24.98193 | 56.10463 | 34837 ft | 541 kts | 74° |
| 2026-05-07 05:46 | 25.00493 | 56.18363 | 34836 ft | 541 kts | 71° |
| 2026-05-07 05:46 | 25.02914 | 56.26223 | 34822 ft | 541 kts | 71° |
| 2026-05-07 05:47 | 25.04828 | 56.34248 | 34826 ft | 541 kts | 78° |
| 2026-05-07 05:47 | 25.06366 | 56.42375 | 34836 ft | 541 kts | 79° |
| 2026-05-07 05:48 | 25.07701 | 56.50467 | 34855 ft | 540 kts | 85° |
| 2026-05-07 05:48 | 25.07772 | 56.54643 | 35124 ft | 535 kts | 95° |
| 2026-05-07 05:48 | 25.07302 | 56.58638 | 35469 ft | 530 kts | 101° |
| 2026-05-07 05:48 | 25.06640 | 56.62632 | 35736 ft | 528 kts | 103° |
| 2026-05-07 05:49 | 25.05904 | 56.66599 | 35939 ft | 528 kts | 104° |
| 2026-05-07 05:49 | 25.05132 | 56.70552 | 36167 ft | 527 kts | 104° |
| 2026-05-07 05:49 | 25.04350 | 56.74505 | 36381 ft | 526 kts | 104° |
| 2026-05-07 05:49 | 25.03574 | 56.78438 | 36590 ft | 526 kts | 104° |
| 2026-05-07 05:50 | 25.02804 | 56.82378 | 36777 ft | 526 kts | 104° |
| 2026-05-07 05:50 | 25.01268 | 56.90307 | 36828 ft | 532 kts | 104° |
| 2026-05-07 05:51 | 24.99732 | 56.98287 | 36829 ft | 531 kts | 103° |
| 2026-05-07 05:51 | 24.98202 | 57.06244 | 36827 ft | 530 kts | 103° |
| 2026-05-07 05:52 | 24.96661 | 57.14191 | 36835 ft | 530 kts | 104° |
| 2026-05-07 05:52 | 24.95115 | 57.22134 | 36837 ft | 530 kts | 104° |
| 2026-05-07 05:53 | 24.93564 | 57.30082 | 36829 ft | 530 kts | 104° |
| 2026-05-07 05:53 | 24.92023 | 57.37962 | 36844 ft | 529 kts | 104° |
| 2026-05-07 05:54 | 24.90469 | 57.45885 | 36824 ft | 529 kts | 104° |
| 2026-05-07 05:54 | 24.88908 | 57.53822 | 36842 ft | 529 kts | 104° |
| 2026-05-07 05:55 | 24.87345 | 57.61744 | 36841 ft | 529 kts | 104° |
| 2026-05-07 05:55 | 24.85789 | 57.69605 | 36841 ft | 529 kts | 104° |
| 2026-05-07 05:56 | 24.84218 | 57.77521 | 36837 ft | 529 kts | 104° |
| 2026-05-07 05:56 | 24.81977 | 57.85192 | 36839 ft | 525 kts | 116° |
| 2026-05-07 05:57 | 24.78918 | 57.92481 | 36836 ft | 524 kts | 118° |
| 2026-05-07 05:57 | 24.75732 | 57.99708 | 36840 ft | 524 kts | 118° |
| 2026-05-07 05:58 | 24.72543 | 58.06927 | 36844 ft | 524 kts | 118° |
| 2026-05-07 05:58 | 24.69372 | 58.14143 | 36844 ft | 524 kts | 118° |
| 2026-05-07 05:59 | 24.66206 | 58.21359 | 36844 ft | 524 kts | 118° |
| 2026-05-07 05:59 | 24.63057 | 58.28529 | 36846 ft | 524 kts | 118° |
| 2026-05-07 06:00 | 24.59884 | 58.35739 | 36842 ft | 524 kts | 118° |
| 2026-05-07 06:00 | 24.56706 | 58.42949 | 36846 ft | 524 kts | 118° |
| 2026-05-07 06:01 | 24.53526 | 58.50149 | 36846 ft | 524 kts | 118° |
| 2026-05-07 06:01 | 24.50881 | 58.56132 | 36847 ft | 523 kts | 117° |
| 2026-05-07 06:02 | 24.47696 | 58.63324 | 36849 ft | 523 kts | 118° |
| 2026-05-07 06:02 | 24.44510 | 58.70507 | 36846 ft | 523 kts | 118° |
| 2026-05-07 06:03 | 24.41321 | 58.77691 | 36846 ft | 523 kts | 117° |
| 2026-05-07 06:03 | 24.38133 | 58.84870 | 36847 ft | 523 kts | 118° |
| 2026-05-07 06:04 | 24.34940 | 58.92039 | 36843 ft | 523 kts | 118° |
| 2026-05-07 06:04 | 24.31760 | 58.99169 | 36844 ft | 523 kts | 118° |
| 2026-05-07 06:05 | 24.28565 | 59.06322 | 36842 ft | 523 kts | 118° |
| 2026-05-07 06:05 | 24.25355 | 59.13500 | 36851 ft | 523 kts | 118° |
| 2026-05-07 06:06 | 24.22150 | 59.20658 | 36852 ft | 523 kts | 118° |
| 2026-05-07 06:06 | 24.18941 | 59.27810 | 36847 ft | 523 kts | 118° |
| 2026-05-07 06:07 | 24.15729 | 59.34960 | 36846 ft | 523 kts | 118° |
| 2026-05-07 06:07 | 24.12537 | 59.42055 | 36847 ft | 523 kts | 118° |
| 2026-05-07 06:08 | 24.09320 | 59.49194 | 36847 ft | 523 kts | 118° |
| 2026-05-07 06:08 | 24.06103 | 59.56333 | 36847 ft | 522 kts | 118° |
| 2026-05-07 06:09 | 24.02877 | 59.63466 | 36848 ft | 522 kts | 118° |
| 2026-05-07 06:09 | 23.99654 | 59.70580 | 36847 ft | 522 kts | 118° |
| 2026-05-07 06:10 | 23.96447 | 59.77652 | 36847 ft | 522 kts | 118° |
| 2026-05-07 06:10 | 23.93219 | 59.84759 | 36847 ft | 522 kts | 118° |
| 2026-05-07 06:11 | 23.89988 | 59.91865 | 36848 ft | 522 kts | 118° |
| 2026-05-07 06:11 | 23.86753 | 59.98969 | 36848 ft | 521 kts | 118° |
| 2026-05-07 06:12 | 23.83516 | 60.06065 | 36848 ft | 521 kts | 118° |
| 2026-05-07 06:12 | 23.80295 | 60.13117 | 36848 ft | 521 kts | 118° |
| 2026-05-07 06:13 | 23.77055 | 60.20200 | 36849 ft | 521 kts | 118° |
| 2026-05-07 06:13 | 23.73813 | 60.27276 | 36849 ft | 521 kts | 118° |
| 2026-05-07 06:14 | 23.70564 | 60.34356 | 36851 ft | 521 kts | 118° |
| 2026-05-07 06:14 | 23.67311 | 60.41435 | 36849 ft | 521 kts | 118° |
| 2026-05-07 06:15 | 23.64077 | 60.48462 | 36849 ft | 521 kts | 118° |
| 2026-05-07 06:15 | 23.60819 | 60.55532 | 36847 ft | 521 kts | 118° |
| 2026-05-07 06:16 | 23.57562 | 60.62587 | 36847 ft | 521 kts | 118° |
| 2026-05-07 06:16 | 23.54298 | 60.69649 | 36848 ft | 521 kts | 118° |
| 2026-05-07 06:17 | 23.51031 | 60.76705 | 36848 ft | 521 kts | 118° |
| 2026-05-07 06:17 | 23.47765 | 60.83751 | 36851 ft | 521 kts | 118° |
| 2026-05-07 06:18 | 23.44494 | 60.90796 | 36851 ft | 521 kts | 118° |
| 2026-05-07 06:18 | 23.41242 | 60.97789 | 36853 ft | 521 kts | 118° |
| 2026-05-07 06:19 | 23.37966 | 61.04824 | 36851 ft | 521 kts | 118° |
| 2026-05-07 06:19 | 23.34688 | 61.11854 | 36854 ft | 521 kts | 118° |
| 2026-05-07 06:20 | 23.31929 | 61.19131 | 36850 ft | 522 kts | 104° |
| 2026-05-07 06:20 | 23.30836 | 61.26944 | 36850 ft | 522 kts | 96° |
| 2026-05-07 06:21 | 23.30144 | 61.34817 | 36848 ft | 523 kts | 95° |
| 2026-05-07 06:21 | 23.29493 | 61.42703 | 36852 ft | 523 kts | 95° |
| 2026-05-07 06:22 | 23.28814 | 61.50533 | 36844 ft | 523 kts | 95° |
| 2026-05-07 06:22 | 23.27751 | 61.62361 | 36850 ft | 524 kts | 96° |
| 2026-05-07 06:23 | 23.27033 | 61.70254 | 36850 ft | 524 kts | 96° |
| 2026-05-07 06:23 | 23.26313 | 61.78138 | 36851 ft | 524 kts | 96° |
| 2026-05-07 06:24 | 23.25590 | 61.86016 | 36849 ft | 524 kts | 96° |
| 2026-05-07 06:24 | 23.24863 | 61.93899 | 36855 ft | 524 kts | 96° |
| 2026-05-07 06:25 | 23.24132 | 62.01779 | 36853 ft | 524 kts | 96° |
| 2026-05-07 06:25 | 23.23397 | 62.09663 | 36855 ft | 524 kts | 96° |
| 2026-05-07 06:26 | 23.22658 | 62.17547 | 36855 ft | 524 kts | 96° |
| 2026-05-07 06:26 | 23.21920 | 62.25375 | 36852 ft | 524 kts | 96° |
| 2026-05-07 06:27 | 23.21173 | 62.33255 | 36852 ft | 524 kts | 96° |
| 2026-05-07 06:27 | 23.20421 | 62.41145 | 36850 ft | 524 kts | 96° |
| 2026-05-07 06:28 | 23.19666 | 62.49026 | 36853 ft | 524 kts | 96° |
| 2026-05-07 06:28 | 23.18907 | 62.56911 | 36850 ft | 524 kts | 96° |
| 2026-05-07 06:29 | 23.18148 | 62.64751 | 36858 ft | 524 kts | 96° |
| 2026-05-07 06:29 | 23.17379 | 62.72648 | 36856 ft | 524 kts | 96° |
| 2026-05-07 06:30 | 23.16609 | 62.80524 | 36857 ft | 524 kts | 96° |
| 2026-05-07 06:30 | 23.15833 | 62.88410 | 36859 ft | 524 kts | 96° |
| 2026-05-07 06:31 | 23.15054 | 62.96291 | 36859 ft | 524 kts | 96° |
| 2026-05-07 06:31 | 23.14276 | 63.04122 | 36853 ft | 524 kts | 96° |
| 2026-05-07 06:32 | 23.13490 | 63.11998 | 36859 ft | 524 kts | 96° |
| 2026-05-07 06:32 | 23.12699 | 63.19874 | 36859 ft | 524 kts | 96° |
| 2026-05-07 06:33 | 23.11904 | 63.27758 | 36856 ft | 524 kts | 96° |
| 2026-05-07 06:33 | 23.11105 | 63.35637 | 36853 ft | 524 kts | 96° |
| 2026-05-07 06:34 | 23.10302 | 63.43513 | 36857 ft | 524 kts | 96° |
| 2026-05-07 06:34 | 23.09500 | 63.51348 | 36856 ft | 524 kts | 96° |
| 2026-05-07 06:35 | 23.08690 | 63.59218 | 36857 ft | 525 kts | 96° |
| 2026-05-07 06:35 | 23.07875 | 63.67098 | 36855 ft | 524 kts | 96° |
| 2026-05-07 06:36 | 23.07056 | 63.74975 | 36856 ft | 524 kts | 96° |
| 2026-05-07 06:36 | 23.06235 | 63.82846 | 36852 ft | 524 kts | 96° |
| 2026-05-07 06:37 | 23.05417 | 63.90712 | 36851 ft | 525 kts | 96° |
| 2026-05-07 06:37 | 23.04620 | 63.98583 | 36857 ft | 525 kts | 96° |
| 2026-05-07 06:38 | 23.03822 | 64.06465 | 36853 ft | 525 kts | 96° |
| 2026-05-07 06:38 | 23.03022 | 64.14291 | 36854 ft | 525 kts | 96° |
| 2026-05-07 06:39 | 23.02211 | 64.22169 | 36851 ft | 525 kts | 96° |
| 2026-05-07 06:39 | 23.01397 | 64.30040 | 36851 ft | 525 kts | 96° |
| 2026-05-07 06:40 | 23.00576 | 64.37932 | 36850 ft | 525 kts | 96° |
| 2026-05-07 06:40 | 22.99753 | 64.45817 | 36851 ft | 525 kts | 96° |
| 2026-05-07 06:41 | 22.98930 | 64.53652 | 36852 ft | 525 kts | 96° |
| 2026-05-07 06:41 | 22.98100 | 64.61521 | 36849 ft | 525 kts | 96° |
| 2026-05-07 06:42 | 22.97264 | 64.69413 | 36848 ft | 525 kts | 96° |
| 2026-05-07 06:42 | 22.96426 | 64.77279 | 36847 ft | 525 kts | 96° |
| 2026-05-07 06:43 | 22.95836 | 64.85171 | 36850 ft | 525 kts | 90° |
| 2026-05-07 06:43 | 22.95807 | 64.93040 | 36845 ft | 524 kts | 89° |
| 2026-05-07 06:44 | 22.95865 | 65.00958 | 36846 ft | 525 kts | 89° |
| 2026-05-07 06:44 | 22.95925 | 65.08882 | 36845 ft | 525 kts | 89° |
| 2026-05-07 06:45 | 22.95970 | 65.16812 | 36845 ft | 525 kts | 89° |
| 2026-05-07 06:45 | 22.96004 | 65.24733 | 36849 ft | 525 kts | 89° |
| 2026-05-07 06:46 | 22.96034 | 65.32615 | 36850 ft | 525 kts | 89° |
| 2026-05-07 06:46 | 22.96060 | 65.40549 | 36844 ft | 525 kts | 89° |